Terminal Aerodrome Forecast
Issued by NWS Blacksburg, VA

Home | Current Version | Previous Version | Text Only | Print | Product List | Glossary On
Versions: 1 2 3 4 5 6 7 8 9 10 11 12 13 14 15 16 17
000
FTUS41 KRNK 281140
TAFROA
TAF
KROA 281140Z 2812/2912 33003KT 1/2SM FG VV002
     FM281300 VRB03KT 4SM BR SCT003
     FM281345 VRB03KT P6SM FEW005
     FM281600 VRB03KT P6SM SKC
     FM281800 16005KT P6SM FEW035
     FM282100 16008KT P6SM SCT050
     FM290200 16004KT P6SM SCT250=

USA.gov is the U.S. government's official web portal to all federal, state and local government web resources and services.